TimeCST,TemperatureF,Dew PointF,Humidity,Sea Level PressureIn,VisibilityMPH,Wind Direction,Wind SpeedMPH,Gust SpeedMPH,PrecipitationIn,Events,Conditions,WindDirDegrees,DateUTC
9:15 AM,60.8,59.0,94,30.05,2.5,South,10.4,-,N/A,,Overcast,190,2012-12-03 15:15:00
9:35 AM,60.8,60.8,100,30.05,2.5,South,13.8,-,N/A,,Overcast,190,2012-12-03 15:35:00
9:55 AM,60.8,59.0,94,30.04,3.0,South,11.5,-,N/A,,Overcast,180,2012-12-03 15:55:00
10:15 AM,60.8,60.8,100,30.04,3.0,South,13.8,-,N/A,,Overcast,190,2012-12-03 16:15:00
12:35 PM,62.6,60.8,94,29.99,7.0,SSW,13.8,19.6,N/A,,Overcast,200,2012-12-03 18:35:00
12:55 PM,64.4,60.8,88,29.98,10.0,SSW,17.3,-,N/A,,Overcast,210,2012-12-03 18:55:00
3:15 PM,-9999,-9999,N/A,29.96,-9999.0,SSW,17.3,-,N/A,,Unknown,210,2012-12-03 21:15:00
3:35 PM,66.2,60.8,83,29.96,10.0,SSW,19.6,26.5,N/A,,Clear,200,2012-12-03 21:35:00
3:55 PM,66.2,59.0,78,29.96,10.0,SSW,17.3,-,N/A,,Clear,200,2012-12-03 21:55:00
4:15 PM,64.4,57.2,77,29.96,10.0,SSW,16.1,21.9,N/A,,Clear,200,2012-12-03 22:15:00
4:35 PM,64.4,57.2,77,29.96,10.0,South,15.0,23.0,N/A,,Clear,190,2012-12-03 22:35:00
4:55 PM,64.4,57.2,77,29.96,10.0,South,16.1,-,N/A,,Clear,190,2012-12-03 22:55:00
5:15 PM,64.4,57.2,77,29.96,10.0,South,15.0,-,N/A,,Clear,190,2012-12-03 23:15:00
5:35 PM,62.6,55.4,77,29.95,10.0,South,17.3,-,N/A,,Clear,190,2012-12-03 23:35:00
5:55 PM,62.6,55.4,77,29.95,10.0,South,15.0,-,N/A,,Clear,190,2012-12-03 23:55:00
6:15 PM,64.4,55.4,73,29.96,10.0,SSW,17.3,24.2,N/A,,Clear,200,2012-12-04 00:15:00
6:35 PM,62.6,55.4,77,29.96,10.0,South,17.3,-,N/A,,Clear,190,2012-12-04 00:35:00
6:55 PM,62.6,55.4,77,29.95,10.0,South,16.1,-,N/A,,Clear,190,2012-12-04 00:55:00
7:15 PM,62.6,55.4,77,29.97,10.0,SSW,15.0,-,N/A,,Clear,200,2012-12-04 01:15:00
7:35 PM,62.6,55.4,77,29.97,10.0,SSW,13.8,-,N/A,,Clear,210,2012-12-04 01:35:00
7:55 PM,62.6,55.4,77,29.98,10.0,SSW,16.1,21.9,N/A,,Clear,210,2012-12-04 01:55:00
8:15 PM,62.6,55.4,77,29.98,10.0,SW,19.6,24.2,N/A,,Scattered Clouds,220,2012-12-04 02:15:00
8:35 PM,62.6,55.4,77,29.98,10.0,SW,17.3,24.2,N/A,,Mostly Cloudy,220,2012-12-04 02:35:00
8:55 PM,62.6,55.4,77,29.98,10.0,SW,17.3,-,N/A,,Partly Cloudy,220,2012-12-04 02:55:00
9:15 PM,62.6,55.4,77,29.98,10.0,SSW,16.1,20.7,N/A,,Partly Cloudy,210,2012-12-04 03:15:00
9:35 PM,60.8,55.4,82,29.98,10.0,SSW,16.1,-,N/A,,Partly Cloudy,200,2012-12-04 03:35:00
9:55 PM,60.8,55.4,82,29.97,10.0,SSW,17.3,-,N/A,,Clear,200,2012-12-04 03:55:00
10:15 PM,60.8,55.4,82,29.97,10.0,SSW,17.3,23.0,N/A,,Clear,210,2012-12-04 04:15:00
10:35 PM,60.8,55.4,82,29.98,10.0,SSW,17.3,-,N/A,,Clear,210,2012-12-04 04:35:00
10:55 PM,60.8,55.4,82,29.98,10.0,SW,17.3,23.0,N/A,,Scattered Clouds,220,2012-12-04 04:55:00
11:15 PM,62.6,55.4,77,29.98,10.0,SSW,16.1,23.0,N/A,,Overcast,210,2012-12-04 05:15:00
11:35 PM,60.8,53.6,77,29.98,10.0,SSW,18.4,-,N/A,,Mostly Cloudy,210,2012-12-04 05:35:00
11:55 PM,60.8,53.6,77,29.97,10.0,SW,17.3,23.0,N/A,,Mostly Cloudy,220,2012-12-04 05:55:00